Time;durP1;ratioP1;P1;durP2;ratioP2;P2;SDS_P1;SDS_P2;PMS_P1;PMS_P2;Temp;Humidity;BMP_temperature;BMP_pressure;BME280_temperature;BME280_humidity;BME280_pressure;Samples;Min_cycle;Max_cycle;Signal;HPM_P1;HPM_P2
2023/05/22 00:00:53;;;;;;;10.63;8.63;;;;;;;;;;5078391;28;20230;-82
2023/05/22 00:03:23;;;;;;;9.47;7.83;;;;;;;;;;5080866;28;20231;-83
2023/05/22 00:08:17;;;;;;;11.10;9.90;;;;;;;;;;5021339;28;20293;-88
2023/05/22 00:10:43;;;;;;;10.40;9.30;;;;;;;;;;5030203;28;20179;-88
2023/05/22 00:13:09;;;;;;;9.97;8.23;;;;;;;;;;5031614;28;20171;-89
2023/05/22 00:15:35;;;;;;;11.90;9.27;;;;;;;;;;5023061;28;20179;-88
2023/05/22 00:18:01;;;;;;;10.50;8.63;;;;;;;;;;5014684;28;20210;-88
2023/05/22 00:20:27;;;;;;;8.93;8.03;;;;;;;;;;5015449;28;20241;-88
2023/05/22 00:22:55;;;;;;;10.93;8.50;;;;;;;;;;5036177;28;20209;-88
2023/05/22 00:25:21;;;;;;;10.60;8.53;;;;;;;;;;5018303;28;20228;-88
2023/05/22 00:27:47;;;;;;;9.50;8.50;;;;;;;;;;5018498;28;20199;-88
2023/05/22 00:30:13;;;;;;;10.23;9.07;;;;;;;;;;5017826;28;20174;-88
2023/05/22 00:32:39;;;;;;;10.77;8.70;;;;;;;;;;5035156;28;20174;-88
2023/05/22 00:35:06;;;;;;;10.03;8.43;;;;;;;;;;5017667;28;20205;-88
2023/05/22 00:37:32;;;;;;;9.77;8.77;;;;;;;;;;5017834;28;20202;-88
2023/05/22 00:39:58;;;;;;;9.90;8.57;;;;;;;;;;5035253;28;20232;-88
2023/05/22 00:42:24;;;;;;;12.67;8.73;;;;;;;;;;5018320;28;20174;-88
2023/05/22 00:44:50;;;;;;;9.73;8.73;;;;;;;;;;5035609;28;20595;-88
2023/05/22 00:47:16;;;;;;;10.27;8.30;;;;;;;;;;5018001;28;20206;-88
2023/05/22 00:49:42;;;;;;;10.07;8.30;;;;;;;;;;5017803;28;20179;-88
2023/05/22 00:52:09;;;;;;;9.70;8.70;;;;;;;;;;5017976;28;20178;-88
2023/05/22 00:54:35;;;;;;;10.77;9.27;;;;;;;;;;5017912;28;20205;-88
2023/05/22 00:57:02;;;;;;;10.00;9.00;;;;;;;;;;5035685;28;20205;-88
2023/05/22 00:59:28;;;;;;;9.70;8.37;;;;;;;;;;5035719;28;20179;-88
2023/05/22 01:01:55;;;;;;;9.17;8.23;;;;;;;;;;5035229;28;20213;-88
2023/05/22 01:04:22;;;;;;;9.13;8.07;;;;;;;;;;5017712;28;20178;-88
2023/05/22 01:06:48;;;;;;;9.43;8.53;;;;;;;;;;5035705;28;20289;-88
2023/05/22 01:09:14;;;;;;;9.90;8.53;;;;;;;;;;5035531;28;20269;-88
2023/05/22 01:11:45;;;;;;;9.60;8.60;;;;;;;;;;5034758;28;20224;-88
2023/05/22 01:14:21;;;;;;;9.27;7.80;;;;;;;;;;5035796;28;20193;-88
2023/05/22 01:17:01;;;;;;;9.83;8.83;;;;;;;;;;5017690;28;20217;-88
2023/05/22 01:19:52;;;;;;;10.00;9.00;;;;;;;;;;5017467;28;20170;-88
2023/05/22 01:22:20;;;;;;;8.90;8.00;;;;;;;;;;5035583;28;20173;-89
2023/05/22 01:25:05;;;;;;;8.87;7.70;;;;;;;;;;5017146;28;20178;-88
2023/05/22 01:27:33;;;;;;;10.47;8.40;;;;;;;;;;5017661;28;20190;-87
2023/05/22 01:30:14;;;;;;;9.77;8.40;;;;;;;;;;5034758;28;20198;-88
2023/05/22 01:32:41;;;;;;;10.30;8.57;;;;;;;;;;5016500;28;20175;-88
2023/05/22 01:35:10;;;;;;;9.90;8.17;;;;;;;;;;5017034;28;20202;-88
2023/05/22 01:37:36;;;;;;;10.90;9.43;;;;;;;;;;5034738;28;20197;-88
2023/05/22 01:40:03;;;;;;;10.40;9.30;;;;;;;;;;5016752;28;20178;-88
2023/05/22 01:42:29;;;;;;;9.87;8.87;;;;;;;;;;5034697;28;20171;-88
2023/05/22 01:44:55;;;;;;;11.00;8.83;;;;;;;;;;5017141;28;20201;-88
2023/05/22 01:47:22;;;;;;;9.00;8.10;;;;;;;;;;5016948;28;20202;-88
2023/05/22 01:49:48;;;;;;;9.73;8.77;;;;;;;;;;5034067;28;20167;-88
2023/05/22 01:52:25;;;;;;;10.10;8.60;;;;;;;;;;5017021;28;20182;-87
2023/05/22 01:54:53;;;;;;;9.57;8.47;;;;;;;;;;5017028;28;20201;-88
2023/05/22 01:57:23;;;;;;;10.50;9.17;;;;;;;;;;5016504;28;20260;-88
2023/05/22 01:59:54;;;;;;;10.73;8.37;;;;;;;;;;5015954;28;20189;-87
2023/05/22 02:02:21;;;;;;;11.67;8.93;;;;;;;;;;5034646;28;20190;-88
2023/05/22 02:04:56;;;;;;;11.20;9.30;;;;;;;;;;5034345;28;20179;-87
2023/05/22 02:07:23;;;;;;;9.60;8.63;;;;;;;;;;5016243;28;20224;-88
2023/05/22 02:09:50;;;;;;;10.03;8.50;;;;;;;;;;5016111;28;20178;-88
2023/05/22 02:12:16;;;;;;;10.57;9.47;;;;;;;;;;5016392;28;20282;-88
2023/05/22 02:14:42;;;;;;;10.37;9.23;;;;;;;;;;5016381;28;20292;-88
2023/05/22 02:17:08;;;;;;;10.43;8.80;;;;;;;;;;5034069;28;20229;-88
2023/05/22 02:19:35;;;;;;;10.40;9.30;;;;;;;;;;5016097;28;20178;-88
2023/05/22 02:22:01;;;;;;;10.43;9.33;;;;;;;;;;5016199;28;20210;-88
2023/05/22 02:24:27;;;;;;;10.23;9.13;;;;;;;;;;5016358;28;20183;-88
2023/05/22 02:26:53;;;;;;;10.80;8.70;;;;;;;;;;5016181;28;20198;-88
2023/05/22 02:29:19;;;;;;;10.03;9.03;;;;;;;;;;5016195;28;20185;-88
2023/05/22 02:31:45;;;;;;;9.73;8.73;;;;;;;;;;5014329;28;20173;-88
2023/05/22 02:34:11;;;;;;;9.80;8.80;;;;;;;;;;5016063;28;20202;-88
2023/05/22 02:36:37;;;;;;;11.43;9.50;;;;;;;;;;5015122;28;20276;-88
2023/05/22 02:39:04;;;;;;;12.97;9.20;;;;;;;;;;5015854;28;20269;-88
2023/05/22 02:41:30;;;;;;;10.17;9.13;;;;;;;;;;5015646;28;20181;-88
2023/05/22 02:43:56;;;;;;;9.87;8.87;;;;;;;;;;5015926;28;20202;-88
2023/05/22 02:46:22;;;;;;;10.53;9.10;;;;;;;;;;5015807;28;20665;-88
2023/05/22 02:48:48;;;;;;;10.67;9.03;;;;;;;;;;5033574;28;20228;-88
2023/05/22 02:51:14;;;;;;;8.93;8.03;;;;;;;;;;5033074;28;20174;-88
2023/05/22 02:53:40;;;;;;;9.13;8.00;;;;;;;;;;5033290;28;20198;-88
2023/05/22 02:56:07;;;;;;;9.47;8.33;;;;;;;;;;5015701;28;20178;-87
2023/05/22 02:58:33;;;;;;;10.10;9.00;;;;;;;;;;5033429;28;20193;-88
2023/05/22 03:00:59;;;;;;;10.70;8.53;;;;;;;;;;5015409;28;20174;-88
2023/05/22 03:03:25;;;;;;;10.30;8.90;;;;;;;;;;5032986;28;20649;-88
2023/05/22 03:05:57;;;;;;;11.43;9.60;;;;;;;;;;5033331;28;20182;-88
2023/05/22 03:08:22;;;;;;;10.53;8.67;;;;;;;;;;5033698;28;20190;-88
2023/05/22 03:10:49;;;;;;;11.23;9.00;;;;;;;;;;5033237;28;20171;-88
2023/05/22 03:13:15;;;;;;;11.53;8.90;;;;;;;;;;5015514;28;20253;-88
2023/05/22 03:15:41;;;;;;;9.70;8.70;;;;;;;;;;5033182;28;20669;-88
2023/05/22 03:18:07;;;;;;;9.50;8.57;;;;;;;;;;5033094;28;20197;-88
2023/05/22 03:20:33;;;;;;;9.77;8.73;;;;;;;;;;5032760;28;20200;-88
2023/05/22 03:22:59;;;;;;;9.70;8.70;;;;;;;;;;5015735;28;20174;-88
2023/05/22 03:25:25;;;;;;;10.37;8.50;;;;;;;;;;5015338;28;20186;-88
2023/05/22 03:27:51;;;;;;;11.30;8.87;;;;;;;;;;5015344;28;20202;-87
2023/05/22 03:30:17;;;;;;;9.70;8.70;;;;;;;;;;5014963;28;20546;-88
2023/05/22 03:32:43;;;;;;;9.30;8.40;;;;;;;;;;5013620;28;20178;-88
2023/05/22 03:35:09;;;;;;;9.43;8.40;;;;;;;;;;5015339;28;20252;-88
2023/05/22 03:37:35;;;;;;;10.07;8.17;;;;;;;;;;5015202;28;20204;-88
2023/05/22 03:40:03;;;;;;;9.60;8.60;;;;;;;;;;5032361;28;20174;-88
2023/05/22 03:42:29;;;;;;;10.57;8.50;;;;;;;;;;5033057;28;20261;-88
2023/05/22 03:44:55;;;;;;;9.10;8.20;;;;;;;;;;5015115;28;20178;-88
2023/05/22 03:47:21;;;;;;;10.43;9.33;;;;;;;;;;5033470;28;20331;-87
2023/05/22 03:49:47;;;;;;;10.20;9.13;;;;;;;;;;5038863;28;20312;-88
2023/05/22 03:52:13;;;;;;;9.80;8.80;;;;;;;;;;5021755;28;20276;-88
2023/05/22 03:54:39;;;;;;;10.67;8.70;;;;;;;;;;5039268;28;20194;-88
2023/05/22 03:57:05;;;;;;;10.00;9.00;;;;;;;;;;5021655;28;20194;-88
2023/05/22 03:59:31;;;;;;;11.73;9.20;;;;;;;;;;5021061;28;20178;-88
2023/05/22 04:01:59;;;;;;;11.60;9.20;;;;;;;;;;5021126;28;20218;-88
2023/05/22 04:04:25;;;;;;;8.90;8.00;;;;;;;;;;5021190;28;20216;-88
2023/05/22 04:06:52;;;;;;;9.10;8.20;;;;;;;;;;5039025;28;20251;-88
2023/05/22 04:09:18;;;;;;;9.93;8.80;;;;;;;;;;5038970;28;20184;-88
2023/05/22 04:11:45;;;;;;;10.33;9.13;;;;;;;;;;5038400;28;20175;-88
2023/05/22 04:14:11;;;;;;;9.93;8.90;;;;;;;;;;5021523;28;20252;-88
2023/05/22 04:16:38;;;;;;;10.27;9.17;;;;;;;;;;5038812;28;20186;-88
2023/05/22 04:19:04;;;;;;;10.00;8.90;;;;;;;;;;5021340;28;20213;-88
2023/05/22 04:21:34;;;;;;;10.40;9.30;;;;;;;;;;5038619;28;20177;-88
2023/05/22 04:24:00;;;;;;;10.97;9.27;;;;;;;;;;5021481;28;20265;-88
2023/05/22 04:26:30;;;;;;;10.53;9.40;;;;;;;;;;5021528;28;20225;-88
2023/05/22 04:28:56;;;;;;;11.40;9.77;;;;;;;;;;5039323;28;20174;-88
2023/05/22 04:31:22;;;;;;;11.43;8.50;;;;;;;;;;5037273;28;20178;-88
2023/05/22 04:33:49;;;;;;;9.60;8.60;;;;;;;;;;5021146;28;20202;-88
2023/05/22 04:36:16;;;;;;;11.13;8.80;;;;;;;;;;5021267;28;20190;-88
2023/05/22 04:38:43;;;;;;;9.57;8.57;;;;;;;;;;5021395;28;20212;-88
2023/05/22 04:41:09;;;;;;;10.53;9.43;;;;;;;;;;5021595;28;20244;-88
2023/05/22 04:43:37;;;;;;;12.43;10.30;;;;;;;;;;5039286;28;20201;-88
2023/05/22 04:46:03;;;;;;;10.77;9.67;;;;;;;;;;5039031;28;20185;-88
2023/05/22 04:48:29;;;;;;;13.43;9.73;;;;;;;;;;5021638;28;20174;-88
2023/05/22 04:50:57;;;;;;;12.97;10.40;;;;;;;;;;5020602;28;20695;-88
2023/05/22 04:53:23;;;;;;;10.77;9.67;;;;;;;;;;5038703;28;20177;-82
2023/05/22 04:55:49;;;;;;;13.27;10.27;;;;;;;;;;5038927;28;20181;-81
2023/05/22 04:58:15;;;;;;;10.13;9.03;;;;;;;;;;5021025;28;20262;-82
2023/05/22 05:00:41;;;;;;;11.10;9.23;;;;;;;;;;5016733;28;20285;-82
2023/05/22 05:03:10;;;;;;;11.60;8.93;;;;;;;;;;5017952;28;20209;-82
2023/05/22 05:05:36;;;;;;;10.90;9.47;;;;;;;;;;5035997;28;20174;-82
2023/05/22 05:08:02;;;;;;;10.70;9.60;;;;;;;;;;5035340;28;20294;-82
2023/05/22 05:10:28;;;;;;;11.93;10.27;;;;;;;;;;5035087;28;20170;-82
2023/05/22 05:12:54;;;;;;;11.80;10.57;;;;;;;;;;5035388;28;20174;-81
2023/05/22 05:15:22;;;;;;;13.53;10.77;;;;;;;;;;5035540;28;20198;-81
2023/05/22 05:17:48;;;;;;;11.93;10.73;;;;;;;;;;5035533;28;20194;-81
2023/05/22 05:20:14;;;;;;;12.53;11.23;;;;;;;;;;5017643;28;20200;-82
2023/05/22 05:22:42;;;;;;;13.43;10.50;;;;;;;;;;5017619;28;20575;-82
2023/05/22 05:25:09;;;;;;;11.50;10.30;;;;;;;;;;5035636;28;20178;-81
2023/05/22 05:27:35;;;;;;;12.33;11.03;;;;;;;;;;5035231;28;20289;-80
2023/05/22 05:30:01;;;;;;;14.13;10.93;;;;;;;;;;5034668;28;20253;-81
2023/05/22 05:32:27;;;;;;;9.80;8.63;;;;;;;;;;5034018;28;20185;-80
2023/05/22 05:34:53;;;;;;;12.67;10.90;;;;;;;;;;5016567;28;20206;-82
2023/05/22 05:37:19;;;;;;;9.63;8.60;;;;;;;;;;5010646;28;20205;-85
2023/05/22 05:39:45;;;;;;;12.77;11.00;;;;;;;;;;5042040;28;20171;-85
2023/05/22 05:42:11;;;;;;;11.23;10.00;;;;;;;;;;5016763;28;20174;-84
2023/05/22 05:44:37;;;;;;;11.10;10.00;;;;;;;;;;5018279;28;20178;-85
2023/05/22 05:47:03;;;;;;;13.20;11.80;;;;;;;;;;5016894;28;20704;-82
2023/05/22 05:49:29;;;;;;;11.87;10.67;;;;;;;;;;5027629;28;20187;-86
2023/05/22 05:51:55;;;;;;;13.37;10.80;;;;;;;;;;5016271;28;20179;-86
2023/05/22 05:54:21;;;;;;;13.87;11.67;;;;;;;;;;5017175;28;20206;-83
2023/05/22 05:56:47;;;;;;;11.77;10.57;;;;;;;;;;5036975;28;20204;-81
2023/05/22 05:59:13;;;;;;;14.13;10.70;;;;;;;;;;5011614;28;20190;-82
2023/05/22 06:01:41;;;;;;;11.63;10.37;;;;;;;;;;5010420;28;20229;-82
2023/05/22 06:04:07;;;;;;;13.03;11.63;;;;;;;;;;5036554;28;20552;-83
2023/05/22 06:06:38;;;;;;;12.97;11.07;;;;;;;;;;5035695;22;20252;-81
2023/05/22 06:09:05;;;;;;;11.37;10.00;;;;;;;;;;5044839;28;20261;-83
2023/05/22 06:11:31;;;;;;;12.00;10.80;;;;;;;;;;5029484;28;20167;-83
2023/05/22 06:14:01;;;;;;;12.53;11.23;;;;;;;;;;5041894;28;20194;-82
2023/05/22 06:16:27;;;;;;;12.40;11.10;;;;;;;;;;5040660;28;20182;-82
2023/05/22 06:18:55;;;;;;;13.23;11.33;;;;;;;;;;5037894;28;20261;-82
2023/05/22 06:21:21;;;;;;;12.90;11.50;;;;;;;;;;5038941;28;20202;-82
2023/05/22 06:23:48;;;;;;;12.20;11.00;;;;;;;;;;5039674;28;20182;-82
2023/05/22 06:26:15;;;;;;;12.60;11.30;;;;;;;;;;5039829;28;20200;-82
2023/05/22 06:28:41;;;;;;;12.87;11.57;;;;;;;;;;5039702;28;20187;-82
2023/05/22 06:31:08;;;;;;;11.63;10.43;;;;;;;;;;5038075;28;20556;-82
2023/05/22 06:33:35;;;;;;;13.10;11.70;;;;;;;;;;5039358;28;20184;-82
2023/05/22 06:36:02;;;;;;;12.87;11.27;;;;;;;;;;5039603;28;20170;-83
2023/05/22 06:38:28;;;;;;;11.63;10.43;;;;;;;;;;5037532;28;20194;-80
2023/05/22 06:40:54;;;;;;;13.23;11.40;;;;;;;;;;5038434;28;20185;-81
2023/05/22 06:43:20;;;;;;;12.33;11.07;;;;;;;;;;5039615;28;20166;-80
2023/05/22 06:45:46;;;;;;;13.50;11.63;;;;;;;;;;5037594;28;20194;-81
2023/05/22 06:48:12;;;;;;;11.87;10.67;;;;;;;;;;5037881;28;20201;-81
2023/05/22 06:50:38;;;;;;;13.70;10.73;;;;;;;;;;5037136;28;20181;-80
2023/05/22 06:53:05;;;;;;;12.90;11.60;;;;;;;;;;5029786;28;20181;-81
2023/05/22 06:55:31;;;;;;;12.97;11.63;;;;;;;;;;5039124;28;20212;-80
2023/05/22 06:57:57;;;;;;;13.50;11.30;;;;;;;;;;5038807;28;20194;-81
2023/05/22 07:00:24;;;;;;;13.10;11.53;;;;;;;;;;5036828;28;20177;-81
2023/05/22 07:02:50;;;;;;;14.37;11.67;;;;;;;;;;5021729;28;20185;-81
2023/05/22 07:05:16;;;;;;;12.60;11.30;;;;;;;;;;5040275;28;20232;-81
2023/05/22 07:07:42;;;;;;;13.83;11.60;;;;;;;;;;5039942;28;20621;-81
2023/05/22 07:10:09;;;;;;;12.50;11.30;;;;;;;;;;5020609;28;20175;-80
2023/05/22 07:12:35;;;;;;;12.60;11.30;;;;;;;;;;5021325;28;20179;-81
2023/05/22 07:15:01;;;;;;;13.67;11.23;;;;;;;;;;5021713;28;20218;-81
2023/05/22 07:17:27;;;;;;;12.80;11.20;;;;;;;;;;5021709;28;20194;-81
2023/05/22 07:19:53;;;;;;;14.37;10.60;;;;;;;;;;5020788;28;20182;-82
2023/05/22 07:22:19;;;;;;;13.60;10.87;;;;;;;;;;5021409;28;20270;-81
2023/05/22 07:24:46;;;;;;;12.83;11.33;;;;;;;;;;5039835;28;20205;-82
2023/05/22 07:27:12;;;;;;;12.17;10.63;;;;;;;;;;5021395;28;20198;-81
2023/05/22 07:29:38;;;;;;;12.77;10.90;;;;;;;;;;5039068;28;20252;-81
2023/05/22 07:32:04;;;;;;;12.67;11.37;;;;;;;;;;5039448;28;20174;-81
2023/05/22 07:34:32;;;;;;;12.57;10.80;;;;;;;;;;5039604;28;20209;-81
2023/05/22 07:36:59;;;;;;;12.50;10.93;;;;;;;;;;5039873;28;20191;-81
2023/05/22 07:39:25;;;;;;;11.67;10.47;;;;;;;;;;5040472;28;20178;-81
2023/05/22 07:41:52;;;;;;;12.97;11.20;;;;;;;;;;5021391;28;20170;-81
2023/05/22 07:44:18;;;;;;;12.33;10.50;;;;;;;;;;5039352;28;20182;-81
2023/05/22 07:46:44;;;;;;;11.60;10.40;;;;;;;;;;5021301;28;20209;-81
2023/05/22 07:49:10;;;;;;;11.73;9.77;;;;;;;;;;5020784;28;20178;-80
2023/05/22 07:51:36;;;;;;;12.95;10.70;;;;;;;;;;5038950;28;20177;-81
2023/05/22 07:54:02;;;;;;;13.50;10.77;;;;;;;;;;5020942;28;20205;-80
2023/05/22 07:56:29;;;;;;;11.68;10.10;;;;;;;;;;5039883;28;20204;-81
2023/05/22 07:58:55;;;;;;;11.13;9.95;;;;;;;;;;5021187;28;20205;-81
2023/05/22 08:01:22;;;;;;;11.25;10.15;;;;;;;;;;5038503;28;20170;-81
2023/05/22 08:03:48;;;;;;;11.68;9.82;;;;;;;;;;5039986;28;20217;-81
2023/05/22 08:06:16;;;;;;;11.48;10.35;;;;;;;;;;5020985;28;20205;-82
2023/05/22 08:08:43;;;;;;;12.18;10.88;;;;;;;;;;5023368;28;20242;-81
2023/05/22 08:11:09;;;;;;;12.50;10.77;;;;;;;;;;5040417;28;20174;-82
2023/05/22 08:13:37;;;;;;;10.88;9.77;;;;;;;;;;5021708;28;20181;-81
2023/05/22 08:16:03;;;;;;;10.75;9.65;;;;;;;;;;5021935;28;20174;-82
2023/05/22 08:18:29;;;;;;;10.77;9.70;;;;;;;;;;5040375;28;20242;-81
2023/05/22 08:20:55;;;;;;;13.40;10.00;;;;;;;;;;5021041;28;20244;-81
2023/05/22 08:23:21;;;;;;;11.30;9.77;;;;;;;;;;5022083;28;20234;-81
2023/05/22 08:25:49;;;;;;;11.65;8.98;;;;;;;;;;5040420;28;20649;-81
2023/05/22 08:28:15;;;;;;;10.40;9.18;;;;;;;;;;5022588;28;20285;-81
2023/05/22 08:30:41;;;;;;;10.80;9.70;;;;;;;;;;5040359;28;20201;-81
2023/05/22 08:33:07;;;;;;;12.10;10.40;;;;;;;;;;5022580;28;20179;-81
2023/05/22 08:35:33;;;;;;;11.02;9.75;;;;;;;;;;5024090;28;20237;-81
2023/05/22 08:37:59;;;;;;;11.50;9.48;;;;;;;;;;5044229;28;20198;-81
2023/05/22 08:40:31;;;;;;;10.60;9.07;;;;;;;;;;5044833;28;20175;-81
2023/05/22 08:42:58;;;;;;;10.65;8.80;;;;;;;;;;5045093;28;20589;-81
2023/05/22 08:45:25;;;;;;;10.20;9.27;;;;;;;;;;5026803;28;20182;-81
2023/05/22 08:47:52;;;;;;;9.95;8.95;;;;;;;;;;5044823;28;20190;-81
2023/05/22 08:50:18;;;;;;;9.30;8.27;;;;;;;;;;5044878;28;20191;-82
2023/05/22 08:52:50;;;;;;;9.60;8.70;;;;;;;;;;5045477;28;20553;-81
2023/05/22 08:55:18;;;;;;;11.57;9.00;;;;;;;;;;5045476;28;20249;-81
2023/05/22 08:57:44;;;;;;;9.70;8.73;;;;;;;;;;5027364;28;20213;-81
2023/05/22 09:00:10;;;;;;;9.30;8.35;;;;;;;;;;5026528;28;20170;-81
2023/05/22 09:02:37;;;;;;;8.77;7.88;;;;;;;;;;5045667;28;20177;-81
2023/05/22 09:05:06;;;;;;;10.50;8.52;;;;;;;;;;5045701;28;20206;-81
2023/05/22 09:07:32;;;;;;;9.07;8.18;;;;;;;;;;5026815;28;20272;-81
2023/05/22 09:09:59;;;;;;;9.35;8.30;;;;;;;;;;5045501;28;20182;-81
2023/05/22 09:12:26;;;;;;;9.38;8.50;;;;;;;;;;5026905;28;20170;-81
2023/05/22 09:14:52;;;;;;;8.30;7.50;;;;;;;;;;5027831;28;20297;-82
2023/05/22 09:17:20;;;;;;;7.85;6.85;;;;;;;;;;5028151;28;20213;-82
2023/05/22 09:19:46;;;;;;;7.88;7.07;;;;;;;;;;5027552;28;20181;-82
2023/05/22 09:22:12;;;;;;;9.02;8.15;;;;;;;;;;5028938;28;20167;-81
2023/05/22 09:24:40;;;;;;;8.60;7.80;;;;;;;;;;5046693;28;20174;-82
2023/05/22 09:27:07;;;;;;;9.07;8.18;;;;;;;;;;5028858;28;20201;-81
2023/05/22 09:29:47;;;;;;;8.45;7.55;;;;;;;;;;5046894;28;20170;-82
2023/05/22 09:32:14;;;;;;;9.20;8.27;;;;;;;;;;5029704;28;20181;-82
2023/05/22 09:34:40;;;;;;;9.15;8.07;;;;;;;;;;5027243;28;20198;-81
2023/05/22 09:37:06;;;;;;;8.63;7.82;;;;;;;;;;5022880;28;20196;-81
2023/05/22 09:39:45;;;;;;;9.38;7.60;;;;;;;;;;5021810;28;20194;-81
2023/05/22 09:42:13;;;;;;;9.07;7.90;;;;;;;;;;5041028;28;20173;-81
2023/05/22 09:44:41;;;;;;;8.60;7.78;;;;;;;;;;5022371;28;20197;-82
2023/05/22 09:47:08;;;;;;;9.23;8.32;;;;;;;;;;5022490;28;20194;-81
2023/05/22 09:49:44;;;;;;;8.40;7.65;;;;;;;;;;5022139;28;20178;-81
2023/05/22 09:52:11;;;;;;;9.07;7.38;;;;;;;;;;5022512;28;20180;-81
2023/05/22 09:55:03;;;;;;;7.82;7.03;;;;;;;;;;5042268;28;20202;-83
2023/05/22 09:57:35;;;;;;;7.80;6.97;;;;;;;;;;5020062;28;20206;-82
2023/05/22 10:00:10;;;;;;;7.32;6.63;;;;;;;;;;5040272;28;20166;-81
2023/05/22 10:02:37;;;;;;;8.32;6.97;;;;;;;;;;5040288;28;20178;-81
2023/05/22 10:05:08;;;;;;;7.63;6.85;;;;;;;;;;5040734;28;20179;-82
2023/05/22 10:07:41;;;;;;;8.02;7.22;;;;;;;;;;5040706;28;20249;-82
2023/05/22 10:10:08;;;;;;;8.13;7.30;;;;;;;;;;5021317;28;20178;-81
2023/05/22 10:12:46;;;;;;;8.65;7.85;;;;;;;;;;5022583;28;20170;-82
2023/05/22 10:15:12;;;;;;;8.73;7.65;;;;;;;;;;5039779;28;20228;-81
2023/05/22 10:17:40;;;;;;;8.45;7.15;;;;;;;;;;5021047;28;20704;-82
2023/05/22 10:20:07;;;;;;;7.93;7.10;;;;;;;;;;5020582;28;20184;-82
2023/05/22 10:22:37;;;;;;;8.20;7.40;;;;;;;;;;5040091;28;20170;-81
2023/05/22 10:25:03;;;;;;;8.02;7.22;;;;;;;;;;5021874;28;20178;-81
2023/05/22 10:27:29;;;;;;;8.00;7.15;;;;;;;;;;5021769;28;20205;-81
2023/05/22 10:30:00;;;;;;;8.90;7.45;;;;;;;;;;5022361;28;20182;-81
2023/05/22 10:32:41;;;;;;;8.52;7.63;;;;;;;;;;5040542;28;20170;-81
2023/05/22 10:35:07;;;;;;;8.93;7.97;;;;;;;;;;5021373;28;20201;-81
2023/05/22 10:37:42;;;;;;;8.63;7.82;;;;;;;;;;5040396;28;20189;-81
2023/05/22 10:40:09;;;;;;;8.30;7.50;;;;;;;;;;5038697;28;20178;-81
2023/05/22 10:42:37;;;;;;;8.52;7.72;;;;;;;;;;5021417;28;20296;-81
2023/05/22 10:45:03;;;;;;;8.60;7.70;;;;;;;;;;5039674;28;20180;-81
2023/05/22 10:47:32;;;;;;;8.35;7.50;;;;;;;;;;5020631;28;20245;-82
2023/05/22 10:50:08;;;;;;;8.27;7.53;;;;;;;;;;5020621;28;20239;-82
2023/05/22 10:52:35;;;;;;;8.38;7.57;;;;;;;;;;5039008;28;20204;-82
2023/05/22 10:55:05;;;;;;;8.32;7.53;;;;;;;;;;5020401;28;20209;-81
2023/05/22 10:57:36;;;;;;;8.23;7.40;;;;;;;;;;5019705;28;20186;-82
2023/05/22 11:00:08;;;;;;;7.50;6.80;;;;;;;;;;5021509;28;20170;-81
2023/05/22 11:02:37;;;;;;;8.10;7.30;;;;;;;;;;5021329;28;20606;-83
2023/05/22 11:05:20;;;;;;;8.98;7.57;;;;;;;;;;5039995;28;20174;-81
2023/05/22 11:07:46;;;;;;;8.15;7.40;;;;;;;;;;5021290;28;20301;-83
2023/05/22 11:10:13;;;;;;;8.02;7.22;;;;;;;;;;5038817;28;20178;-81
2023/05/22 11:12:40;;;;;;;9.05;7.35;;;;;;;;;;5039134;28;20186;-82
2023/05/22 11:15:06;;;;;;;8.88;7.97;;;;;;;;;;5039704;28;20277;-81
2023/05/22 11:17:36;;;;;;;7.93;7.13;;;;;;;;;;5039746;28;20202;-81
2023/05/22 11:20:06;;;;;;;8.82;7.50;;;;;;;;;;5021446;28;20224;-81
2023/05/22 11:22:32;;;;;;;7.88;6.93;;;;;;;;;;5038660;28;20262;-83
2023/05/22 11:24:59;;;;;;;7.65;6.82;;;;;;;;;;5020765;28;20174;-82
2023/05/22 11:27:25;;;;;;;7.25;6.57;;;;;;;;;;5023972;28;20201;-82
2023/05/22 11:29:51;;;;;;;7.68;6.90;;;;;;;;;;5037697;28;20178;-81
2023/05/22 11:32:19;;;;;;;7.88;6.70;;;;;;;;;;5039520;28;20178;-82
2023/05/22 11:34:51;;;;;;;7.68;6.85;;;;;;;;;;5039821;28;20209;-82
2023/05/22 11:37:18;;;;;;;7.97;7.25;;;;;;;;;;5020867;28;20190;-82
2023/05/22 11:39:51;;;;;;;8.07;7.15;;;;;;;;;;5020759;28;20167;-82
2023/05/22 11:42:18;;;;;;;8.60;7.22;;;;;;;;;;5038853;28;20181;-82
2023/05/22 11:44:44;;;;;;;7.32;6.63;;;;;;;;;;5020245;28;20166;-82
2023/05/22 11:47:10;;;;;;;7.35;6.30;;;;;;;;;;5038898;28;20221;-82
2023/05/22 11:49:36;;;;;;;7.57;6.88;;;;;;;;;;5020501;28;20197;-79
2023/05/22 11:52:02;;;;;;;7.30;6.60;;;;;;;;;;5038555;28;20178;-82
2023/05/22 11:54:31;;;;;;;7.60;6.82;;;;;;;;;;5020522;28;20268;-82
2023/05/22 11:56:58;;;;;;;7.53;6.70;;;;;;;;;;5019336;28;20277;-82
2023/05/22 11:59:24;;;;;;;7.60;6.90;;;;;;;;;;5039291;28;20166;-82
2023/05/22 12:01:50;;;;;;;8.02;7.13;;;;;;;;;;5019842;28;20242;-83
2023/05/22 12:04:16;;;;;;;7.35;6.65;;;;;;;;;;5020448;28;20194;-82
2023/05/22 12:06:44;;;;;;;7.40;6.78;;;;;;;;;;5021580;28;20340;-82
2023/05/22 12:09:11;;;;;;;7.28;6.60;;;;;;;;;;5024028;28;20194;-82
2023/05/22 12:11:37;;;;;;;7.15;6.45;;;;;;;;;;5030664;28;20163;-82
2023/05/22 12:14:03;;;;;;;7.70;7.00;;;;;;;;;;5030405;28;20205;-82
2023/05/22 12:16:35;;;;;;;7.50;6.80;;;;;;;;;;5048526;28;20183;-81
2023/05/22 12:19:04;;;;;;;7.78;6.88;;;;;;;;;;5048662;28;20170;-81
2023/05/22 12:21:31;;;;;;;7.05;6.25;;;;;;;;;;5030289;28;20255;-82
2023/05/22 12:23:57;;;;;;;7.35;6.65;;;;;;;;;;5030655;28;20181;-82
2023/05/22 12:26:23;;;;;;;7.32;6.60;;;;;;;;;;5048682;28;20266;-82
2023/05/22 12:28:54;;;;;;;7.60;6.90;;;;;;;;;;5030764;28;20178;-82
2023/05/22 12:31:21;;;;;;;7.80;7.00;;;;;;;;;;5047371;28;20180;-82
2023/05/22 12:33:47;;;;;;;8.32;7.22;;;;;;;;;;5047356;28;20175;-82
2023/05/22 12:36:14;;;;;;;7.07;6.43;;;;;;;;;;5029776;28;20197;-82
2023/05/22 12:38:40;;;;;;;7.63;6.78;;;;;;;;;;5047903;28;20217;-83
2023/05/22 12:41:06;;;;;;;7.53;6.82;;;;;;;;;;5047045;28;20171;-83
2023/05/22 12:43:32;;;;;;;7.68;6.97;;;;;;;;;;5029801;28;20175;-82
2023/05/22 12:45:58;;;;;;;7.45;6.75;;;;;;;;;;5045964;28;20201;-82
2023/05/22 12:48:25;;;;;;;7.50;6.80;;;;;;;;;;5047761;28;20693;-82
2023/05/22 12:50:51;;;;;;;7.50;6.80;;;;;;;;;;5046459;28;20174;-82
2023/05/22 12:53:17;;;;;;;7.03;6.28;;;;;;;;;;5046375;28;20174;-82
2023/05/22 12:55:43;;;;;;;7.78;6.53;;;;;;;;;;5029257;28;20206;-82
2023/05/22 12:58:09;;;;;;;7.22;6.53;;;;;;;;;;5028538;28;20256;-82
2023/05/22 13:00:35;;;;;;;6.47;5.88;;;;;;;;;;5046126;28;20183;-82
2023/05/22 13:03:01;;;;;;;6.43;5.85;;;;;;;;;;5027426;28;20170;-82
2023/05/22 13:05:27;;;;;;;6.88;6.18;;;;;;;;;;5045965;28;20233;-82
2023/05/22 13:07:54;;;;;;;7.07;6.35;;;;;;;;;;5027264;28;20356;-82
2023/05/22 13:10:20;;;;;;;6.03;5.43;;;;;;;;;;5044738;28;20185;-82
2023/05/22 13:12:47;;;;;;;6.60;5.95;;;;;;;;;;5027174;28;20181;-82
2023/05/22 13:15:14;;;;;;;7.18;6.10;;;;;;;;;;5044440;28;20194;-82
2023/05/22 13:17:40;;;;;;;6.50;5.90;;;;;;;;;;5044384;28;20193;-82
2023/05/22 13:20:06;;;;;;;6.20;5.70;;;;;;;;;;5025260;28;20182;-83
2023/05/22 13:22:32;;;;;;;6.45;5.85;;;;;;;;;;5044262;28;20174;-82
2023/05/22 13:24:58;;;;;;;6.72;5.93;;;;;;;;;;5044286;28;20632;-82
2023/05/22 13:27:26;;;;;;;6.55;5.85;;;;;;;;;;5025949;28;20194;-82
2023/05/22 13:29:52;;;;;;;6.50;5.90;;;;;;;;;;5025299;28;20178;-83
2023/05/22 13:32:18;;;;;;;6.07;5.43;;;;;;;;;;5043938;28;20669;-82
2023/05/22 13:34:44;;;;;;;6.80;6.03;;;;;;;;;;5043901;28;20204;-82
2023/05/22 13:37:11;;;;;;;6.20;5.60;;;;;;;;;;5025746;28;20191;-82
2023/05/22 13:39:37;;;;;;;6.70;6.10;;;;;;;;;;5043572;28;20301;-80
2023/05/22 13:42:03;;;;;;;6.28;5.75;;;;;;;;;;5025203;28;20209;-82
2023/05/22 13:44:29;;;;;;;7.20;5.90;;;;;;;;;;5043546;28;20178;-82
2023/05/22 13:46:55;;;;;;;6.70;6.10;;;;;;;;;;5025114;28;20210;-82
2023/05/22 13:49:21;;;;;;;6.15;5.65;;;;;;;;;;5043122;28;20217;-82
2023/05/22 13:51:47;;;;;;;6.85;6.10;;;;;;;;;;5024854;28;20181;-82
2023/05/22 13:54:13;;;;;;;7.03;6.20;;;;;;;;;;5025152;28;20294;-81
2023/05/22 13:56:40;;;;;;;7.00;5.95;;;;;;;;;;5023706;28;20254;-82
2023/05/22 13:59:06;;;;;;;6.53;5.82;;;;;;;;;;5043132;28;20205;-82
2023/05/22 14:01:32;;;;;;;6.68;6.07;;;;;;;;;;5042303;28;20182;-81
2023/05/22 14:03:58;;;;;;;6.45;5.82;;;;;;;;;;5043471;28;20182;-82
2023/05/22 14:06:24;;;;;;;6.82;6.03;;;;;;;;;;5024951;28;20249;-82
2023/05/22 14:08:50;;;;;;;6.00;5.40;;;;;;;;;;5024153;28;20687;-82
2023/05/22 14:11:16;;;;;;;6.70;5.50;;;;;;;;;;5024218;28;20178;-82
2023/05/22 14:13:42;;;;;;;6.88;5.50;;;;;;;;;;5024377;28;20178;-81
2023/05/22 14:16:08;;;;;;;6.10;5.50;;;;;;;;;;5025036;28;20240;-82
2023/05/22 14:18:34;;;;;;;5.90;5.30;;;;;;;;;;5042698;28;20190;-81
2023/05/22 14:21:00;;;;;;;6.03;5.43;;;;;;;;;;5042275;28;20170;-82
2023/05/22 14:23:26;;;;;;;7.80;5.57;;;;;;;;;;5042868;28;20182;-82
2023/05/22 14:25:52;;;;;;;6.45;5.55;;;;;;;;;;5042102;28;20197;-81
2023/05/22 14:28:18;;;;;;;6.13;5.53;;;;;;;;;;5042616;28;20219;-81
2023/05/22 14:30:44;;;;;;;6.32;5.72;;;;;;;;;;5042106;28;20174;-81
2023/05/22 14:33:11;;;;;;;6.88;5.57;;;;;;;;;;5024150;28;20178;-82
2023/05/22 14:35:37;;;;;;;6.03;5.40;;;;;;;;;;5023448;28;20219;-82